Monclova, Ohio
Current Conditions -  °F | °C
As of 6:52 AM on Monday 22 Dec 2014 (Local Time) from KTOL Reporting Station
Haze Haze  
Wind Chill: 22°   Ceiling: Unl
Heat Index: 22°   Visibility: 5mi
Dew Point: 19°   Wind: 3mph
Humidity: 89%   Direction: 100°E
Pressure: 30.08"   Gusts: NA
Location:  41.56°N, 83.73°W
Report Text: KTOL 221152Z 10003KT 5SM BR CLR M06/M07 A3008 RMK AO2 SLP194 T10561072 11039 21061 56012
Loading
Personal Weather Stations






























Interactive Weather Map New forecast layout! Learn more

10-Day Weather Forecast

Advertisements
Track Severe Weather on mobile